sensor_id;sensor_type;location;lat;lon;timestamp;noise_LAeq;noise_LA_min;noise_LA_max;noise_LA01;noise_LA95
66456;Laerm;56833;52.254;5.598;2023-04-01T00:00:05;43.78;42.70;44.90;;
66456;Laerm;56833;52.254;5.598;2023-04-01T00:00:16;43.76;42.81;44.79;;
66456;Laerm;56833;52.254;5.598;2023-04-01T00:00:27;43.76;42.51;44.66;;
66456;Laerm;56833;52.254;5.598;2023-04-01T00:00:37;43.78;42.82;44.69;;
66456;Laerm;56833;52.254;5.598;2023-04-01T00:00:49;43.81;42.46;44.83;;
66456;Laerm;56833;52.254;5.598;2023-04-01T00:01:00;43.78;42.72;44.72;;
66456;Laerm;56833;52.254;5.598;2023-04-01T00:01:12;43.76;42.81;44.62;;
66456;Laerm;56833;52.254;5.598;2023-04-01T00:01:23;43.75;42.67;44.79;;
66456;Laerm;56833;52.254;5.598;2023-04-01T00:01:34;43.75;42.70;44.67;;
66456;Laerm;56833;52.254;5.598;2023-04-01T00:01:44;43.75;42.92;44.90;;
66456;Laerm;56833;52.254;5.598;2023-04-01T00:01:55;43.75;42.80;44.76;;
66456;Laerm;56833;52.254;5.598;2023-04-01T00:02:05;43.73;42.66;44.60;;
66456;Laerm;56833;52.254;5.598;2023-04-01T00:02:15;43.77;42.58;44.64;;
66456;Laerm;56833;52.254;5.598;2023-04-01T00:02:26;43.76;42.74;44.70;;
66456;Laerm;56833;52.254;5.598;2023-04-01T00:02:36;43.80;42.71;44.76;;
66456;Laerm;56833;52.254;5.598;2023-04-01T00:02:46;43.75;42.70;45.10;;
66456;Laerm;56833;52.254;5.598;2023-04-01T00:02:57;43.76;42.50;44.87;;
66456;Laerm;56833;52.254;5.598;2023-04-01T00:03:07;43.76;42.54;44.88;;
66456;Laerm;56833;52.254;5.598;2023-04-01T00:03:18;43.75;42.72;44.65;;
66456;Laerm;56833;52.254;5.598;2023-04-01T00:03:28;43.73;42.63;44.76;;
66456;Laerm;56833;52.254;5.598;2023-04-01T00:03:39;43.75;42.61;44.90;;
66456;Laerm;56833;52.254;5.598;2023-04-01T00:03:50;43.72;42.82;44.64;;
66456;Laerm;56833;52.254;5.598;2023-04-01T00:04:00;43.78;42.80;44.91;;
66456;Laerm;56833;52.254;5.598;2023-04-01T00:04:12;43.72;42.38;44.73;;
66456;Laerm;56833;52.254;5.598;2023-04-01T00:04:22;43.71;42.53;44.70;;
66456;Laerm;56833;52.254;5.598;2023-04-01T00:04:33;43.74;42.72;44.84;;
66456;Laerm;56833;52.254;5.598;2023-04-01T00:04:43;43.74;42.65;44.88;;
66456;Laerm;56833;52.254;5.598;2023-04-01T00:04:53;43.73;42.63;44.76;;
66456;Laerm;56833;52.254;5.598;2023-04-01T00:05:04;43.72;42.55;44.79;;
66456;Laerm;56833;52.254;5.598;2023-04-01T00:05:15;43.74;42.54;44.70;;
66456;Laerm;56833;52.254;5.598;2023-04-01T00:05:28;43.73;42.53;45.11;;
66456;Laerm;56833;52.254;5.598;2023-04-01T00:05:39;43.75;42.64;44.62;;
66456;Laerm;56833;52.254;5.598;2023-04-01T00:05:49;43.75;42.71;45.01;;
66456;Laerm;56833;52.254;5.598;2023-04-01T00:06:00;43.75;42.62;44.85;;
66456;Laerm;56833;52.254;5.598;2023-04-01T00:06:12;43.72;42.71;44.83;;
66456;Laerm;56833;52.254;5.598;2023-04-01T00:06:23;43.73;42.70;44.75;;
66456;Laerm;56833;52.254;5.598;2023-04-01T00:06:33;43.75;42.78;44.92;;
66456;Laerm;56833;52.254;5.598;2023-04-01T00:06:43;43.73;42.71;44.99;;
66456;Laerm;56833;52.254;5.598;2023-04-01T00:06:54;43.73;42.58;44.75;;
66456;Laerm;56833;52.254;5.598;2023-04-01T00:07:04;43.73;42.71;44.64;;
66456;Laerm;56833;52.254;5.598;2023-04-01T00:07:14;43.74;42.71;44.68;;
66456;Laerm;56833;52.254;5.598;2023-04-01T00:07:25;43.72;42.61;44.94;;
66456;Laerm;56833;52.254;5.598;2023-04-01T00:07:37;43.75;42.62;44.79;;
66456;Laerm;56833;52.254;5.598;2023-04-01T00:07:48;43.70;42.71;44.57;;
66456;Laerm;56833;52.254;5.598;2023-04-01T00:07:58;43.72;42.47;44.66;;
66456;Laerm;56833;52.254;5.598;2023-04-01T00:08:08;43.70;42.55;44.69;;
66456;Laerm;56833;52.254;5.598;2023-04-01T00:08:19;43.73;42.87;44.57;;
66456;Laerm;56833;52.254;5.598;2023-04-01T00:08:29;43.73;42.75;44.74;;
66456;Laerm;56833;52.254;5.598;2023-04-01T00:08:40;43.72;42.38;44.95;;
66456;Laerm;56833;52.254;5.598;2023-04-01T00:08:51;43.69;42.56;44.96;;
66456;Laerm;56833;52.254;5.598;2023-04-01T00:09:02;43.71;42.48;44.84;;
66456;Laerm;56833;52.254;5.598;2023-04-01T00:09:13;43.78;42.65;44.83;;
66456;Laerm;56833;52.254;5.598;2023-04-01T00:09:23;43.72;42.39;44.58;;
66456;Laerm;56833;52.254;5.598;2023-04-01T00:09:33;43.73;42.74;44.91;;
66456;Laerm;56833;52.254;5.598;2023-04-01T00:09:45;43.74;42.69;44.95;;
66456;Laerm;56833;52.254;5.598;2023-04-01T00:09:56;43.74;42.50;44.71;;
66456;Laerm;56833;52.254;5.598;2023-04-01T00:10:06;43.70;42.70;44.64;;
66456;Laerm;56833;52.254;5.598;2023-04-01T00:10:17;43.73;42.59;44.70;;
66456;Laerm;56833;52.254;5.598;2023-04-01T00:10:28;43.73;42.67;44.94;;
66456;Laerm;56833;52.254;5.598;2023-04-01T00:10:38;43.71;42.71;44.63;;
66456;Laerm;56833;52.254;5.598;2023-04-01T00:10:49;43.76;42.79;44.89;;
66456;Laerm;56833;52.254;5.598;2023-04-01T00:11:00;43.75;42.40;44.83;;
66456;Laerm;56833;52.254;5.598;2023-04-01T00:11:10;43.72;42.76;44.91;;
66456;Laerm;56833;52.254;5.598;2023-04-01T00:11:21;43.68;42.66;45.00;;
66456;Laerm;56833;52.254;5.598;2023-04-01T00:11:33;43.73;42.76;44.56;;
66456;Laerm;56833;52.254;5.598;2023-04-01T00:11:43;43.73;42.77;44.72;;
66456;Laerm;56833;52.254;5.598;2023-04-01T00:11:55;43.70;42.60;44.80;;
66456;Laerm;56833;52.254;5.598;2023-04-01T00:12:05;43.69;42.52;44.74;;
66456;Laerm;56833;52.254;5.598;2023-04-01T00:12:16;43.72;42.66;44.83;;
66456;Laerm;56833;52.254;5.598;2023-04-01T00:12:26;43.74;42.33;44.91;;
66456;Laerm;56833;52.254;5.598;2023-04-01T00:12:37;43.71;42.53;44.59;;
66456;Laerm;56833;52.254;5.598;2023-04-01T00:12:47;43.73;42.52;44.76;;
66456;Laerm;56833;52.254;5.598;2023-04-01T00:12:58;43.71;42.51;44.79;;
66456;Laerm;56833;52.254;5.598;2023-04-01T00:13:08;43.69;42.59;44.72;;
66456;Laerm;56833;52.254;5.598;2023-04-01T00:13:19;43.73;42.73;44.96;;
66456;Laerm;56833;52.254;5.598;2023-04-01T00:13:29;43.70;42.67;44.96;;
66456;Laerm;56833;52.254;5.598;2023-04-01T00:13:40;43.69;42.87;44.93;;
66456;Laerm;56833;52.254;5.598;2023-04-01T00:13:50;43.69;42.43;44.83;;
66456;Laerm;56833;52.254;5.598;2023-04-01T00:14:01;43.73;42.80;44.90;;
66456;Laerm;56833;52.254;5.598;2023-04-01T00:14:11;43.73;42.68;44.67;;
66456;Laerm;56833;52.254;5.598;2023-04-01T00:14:22;43.72;42.29;44.81;;
66456;Laerm;56833;52.254;5.598;2023-04-01T00:14:32;43.76;42.47;44.80;;
66456;Laerm;56833;52.254;5.598;2023-04-01T00:14:42;43.70;42.74;44.79;;
66456;Laerm;56833;52.254;5.598;2023-04-01T00:14:53;43.69;42.41;44.92;;
66456;Laerm;56833;52.254;5.598;2023-04-01T00:15:04;43.68;42.14;44.91;;
66456;Laerm;56833;52.254;5.598;2023-04-01T00:15:15;43.68;42.04;44.74;;
66456;Laerm;56833;52.254;5.598;2023-04-01T00:15:29;43.69;42.52;44.61;;
66456;Laerm;56833;52.254;5.598;2023-04-01T00:15:39;43.73;42.36;44.94;;
66456;Laerm;56833;52.254;5.598;2023-04-01T00:15:50;43.71;42.41;44.81;;
66456;Laerm;56833;52.254;5.598;2023-04-01T00:16:02;43.71;42.44;44.77;;
66456;Laerm;56833;52.254;5.598;2023-04-01T00:16:13;43.73;42.68;44.66;;
66456;Laerm;56833;52.254;5.598;2023-04-01T00:16:23;43.74;42.51;44.63;;
66456;Laerm;56833;52.254;5.598;2023-04-01T00:16:33;43.65;42.64;44.58;;
66456;Laerm;56833;52.254;5.598;2023-04-01T00:16:44;43.67;42.77;44.75;;
66456;Laerm;56833;52.254;5.598;2023-04-01T00:16:54;43.68;42.49;44.69;;
66456;Laerm;56833;52.254;5.598;2023-04-01T00:17:04;43.68;42.50;44.70;;
66456;Laerm;56833;52.254;5.598;2023-04-01T00:17:15;43.70;42.69;44.72;;
66456;Laerm;56833;52.254;5.598;2023-04-01T00:17:25;43.65;42.78;44.72;;
66456;Laerm;56833;52.254;5.598;2023-04-01T00:17:36;43.64;42.33;44.62;;
66456;Laerm;56833;52.254;5.598;2023-04-01T00:17:46;43.70;42.73;44.69;;
66456;Laerm;56833;52.254;5.598;2023-04-01T00:17:57;43.67;42.78;44.94;;
66456;Laerm;56833;52.254;5.598;2023-04-01T00:18:07;43.66;42.54;44.69;;
66456;Laerm;56833;52.254;5.598;2023-04-01T00:18:18;43.75;42.60;44.70;;
66456;Laerm;56833;52.254;5.598;2023-04-01T00:18:29;43.71;42.51;44.90;;
66456;Laerm;56833;52.254;5.598;2023-04-01T00:18:39;43.67;42.64;44.71;;
66456;Laerm;56833;52.254;5.598;2023-04-01T00:18:50;43.69;42.69;44.77;;
66456;Laerm;56833;52.254;5.598;2023-04-01T00:19:01;43.76;42.73;44.70;;
66456;Laerm;56833;52.254;5.598;2023-04-01T00:19:13;43.71;42.52;44.77;;
66456;Laerm;56833;52.254;5.598;2023-04-01T00:19:23;43.70;42.63;44.70;;
66456;Laerm;56833;52.254;5.598;2023-04-01T00:19:34;43.66;42.64;44.66;;
66456;Laerm;56833;52.254;5.598;2023-04-01T00:19:44;43.69;42.67;45.13;;
66456;Laerm;56833;52.254;5.598;2023-04-01T00:19:55;43.67;42.50;44.71;;
66456;Laerm;56833;52.254;5.598;2023-04-01T00:20:05;43.71;42.69;44.84;;
66456;Laerm;56833;52.254;5.598;2023-04-01T00:20:17;43.71;42.56;44.98;;
66456;Laerm;56833;52.254;5.598;2023-04-01T00:20:27;43.67;42.44;44.81;;
66456;Laerm;56833;52.254;5.598;2023-04-01T00:20:38;43.71;42.83;44.83;;
66456;Laerm;56833;52.254;5.598;2023-04-01T00:20:49;43.73;42.69;44.78;;
66456;Laerm;56833;52.254;5.598;2023-04-01T00:21:00;43.70;42.54;44.91;;
66456;Laerm;56833;52.254;5.598;2023-04-01T00:21:10;43.67;42.69;44.54;;
66456;Laerm;56833;52.254;5.598;2023-04-01T00:21:21;43.65;42.43;44.62;;
66456;Laerm;56833;52.254;5.598;2023-04-01T00:21:32;43.67;42.80;44.56;;
66456;Laerm;56833;52.254;5.598;2023-04-01T00:21:43;43.67;42.83;44.75;;
66456;Laerm;56833;52.254;5.598;2023-04-01T00:21:53;43.62;42.60;44.56;;
66456;Laerm;56833;52.254;5.598;2023-04-01T00:22:03;43.69;42.69;44.80;;
66456;Laerm;56833;52.254;5.598;2023-04-01T00:22:14;43.70;42.62;44.68;;
66456;Laerm;56833;52.254;5.598;2023-04-01T00:22:24;43.70;42.59;44.83;;
66456;Laerm;56833;52.254;5.598;2023-04-01T00:22:36;43.70;42.77;44.70;;
66456;Laerm;56833;52.254;5.598;2023-04-01T00:22:46;43.69;42.59;44.75;;
66456;Laerm;56833;52.254;5.598;2023-04-01T00:22:56;43.71;42.78;44.65;;
66456;Laerm;56833;52.254;5.598;2023-04-01T00:23:07;43.71;42.75;44.82;;
66456;Laerm;56833;52.254;5.598;2023-04-01T00:23:18;43.67;42.65;44.72;;
66456;Laerm;56833;52.254;5.598;2023-04-01T00:23:28;43.67;42.67;44.70;;
66456;Laerm;56833;52.254;5.598;2023-04-01T00:23:39;43.75;42.75;44.65;;
66456;Laerm;56833;52.254;5.598;2023-04-01T00:23:49;43.70;42.51;44.62;;
66456;Laerm;56833;52.254;5.598;2023-04-01T00:24:00;43.75;42.72;44.86;;
66456;Laerm;56833;52.254;5.598;2023-04-01T00:24:11;43.73;42.63;44.67;;
66456;Laerm;56833;52.254;5.598;2023-04-01T00:24:21;43.74;42.71;44.70;;
66456;Laerm;56833;52.254;5.598;2023-04-01T00:24:31;43.70;42.55;44.68;;
66456;Laerm;56833;52.254;5.598;2023-04-01T00:24:42;43.73;42.65;44.65;;
66456;Laerm;56833;52.254;5.598;2023-04-01T00:24:52;43.73;42.76;44.72;;
66456;Laerm;56833;52.254;5.598;2023-04-01T00:25:04;43.73;42.43;44.63;;
66456;Laerm;56833;52.254;5.598;2023-04-01T00:25:14;43.70;42.67;44.65;;
66456;Laerm;56833;52.254;5.598;2023-04-01T00:25:25;43.77;42.50;45.08;;
66456;Laerm;56833;52.254;5.598;2023-04-01T00:25:36;43.73;42.79;44.70;;
66456;Laerm;56833;52.254;5.598;2023-04-01T00:25:47;43.75;42.82;44.73;;
66456;Laerm;56833;52.254;5.598;2023-04-01T00:26:01;43.78;42.79;44.60;;
66456;Laerm;56833;52.254;5.598;2023-04-01T00:26:12;43.76;42.68;44.68;;
66456;Laerm;56833;52.254;5.598;2023-04-01T00:26:24;43.74;42.66;44.95;;
66456;Laerm;56833;52.254;5.598;2023-04-01T00:26:35;43.80;42.66;44.78;;
66456;Laerm;56833;52.254;5.598;2023-04-01T00:26:45;43.76;42.42;44.91;;
66456;Laerm;56833;52.254;5.598;2023-04-01T00:26:58;43.77;42.61;44.75;;
66456;Laerm;56833;52.254;5.598;2023-04-01T00:27:08;43.79;42.84;44.59;;
66456;Laerm;56833;52.254;5.598;2023-04-01T00:27:19;43.80;42.52;45.01;;
66456;Laerm;56833;52.254;5.598;2023-04-01T00:27:29;43.77;42.84;45.08;;
66456;Laerm;56833;52.254;5.598;2023-04-01T00:27:40;43.79;42.68;44.95;;
66456;Laerm;56833;52.254;5.598;2023-04-01T00:27:50;43.76;42.65;44.79;;
66456;Laerm;56833;52.254;5.598;2023-04-01T00:28:00;43.83;42.65;44.83;;
66456;Laerm;56833;52.254;5.598;2023-04-01T00:28:11;43.82;42.57;44.85;;
66456;Laerm;56833;52.254;5.598;2023-04-01T00:28:21;43.83;42.86;44.85;;
66456;Laerm;56833;52.254;5.598;2023-04-01T00:28:31;43.84;42.78;45.04;;
66456;Laerm;56833;52.254;5.598;2023-04-01T00:28:43;43.86;42.50;45.05;;
66456;Laerm;56833;52.254;5.598;2023-04-01T00:28:54;43.85;42.47;45.10;;
66456;Laerm;56833;52.254;5.598;2023-04-01T00:29:05;43.85;42.88;44.74;;
66456;Laerm;56833;52.254;5.598;2023-04-01T00:29:15;43.86;42.41;44.84;;
66456;Laerm;56833;52.254;5.598;2023-04-01T00:29:26;43.80;42.52;44.93;;
66456;Laerm;56833;52.254;5.598;2023-04-01T00:29:41;43.83;42.77;44.92;;
66456;Laerm;56833;52.254;5.598;2023-04-01T00:29:52;43.86;42.71;44.87;;
66456;Laerm;56833;52.254;5.598;2023-04-01T00:30:02;43.85;42.66;44.72;;
66456;Laerm;56833;52.254;5.598;2023-04-01T00:30:13;43.84;42.92;45.17;;
66456;Laerm;56833;52.254;5.598;2023-04-01T00:30:24;43.85;42.93;44.96;;
66456;Laerm;56833;52.254;5.598;2023-04-01T00:30:35;43.90;42.93;44.75;;
66456;Laerm;56833;52.254;5.598;2023-04-01T00:30:46;43.88;42.81;45.04;;
66456;Laerm;56833;52.254;5.598;2023-04-01T00:30:57;43.85;42.92;45.06;;
66456;Laerm;56833;52.254;5.598;2023-04-01T00:31:07;43.86;42.91;45.07;;
66456;Laerm;56833;52.254;5.598;2023-04-01T00:31:18;43.88;42.66;44.84;;
66456;Laerm;56833;52.254;5.598;2023-04-01T00:31:31;43.91;42.88;45.00;;
66456;Laerm;56833;52.254;5.598;2023-04-01T00:31:42;43.94;43.03;45.12;;
66456;Laerm;56833;52.254;5.598;2023-04-01T00:31:52;43.98;42.66;45.02;;
66456;Laerm;56833;52.254;5.598;2023-04-01T00:32:02;43.93;42.96;45.46;;
66456;Laerm;56833;52.254;5.598;2023-04-01T00:32:13;43.98;42.65;45.17;;
66456;Laerm;56833;52.254;5.598;2023-04-01T00:32:24;43.98;42.82;44.92;;
66456;Laerm;56833;52.254;5.598;2023-04-01T00:32:36;43.96;42.63;45.11;;
66456;Laerm;56833;52.254;5.598;2023-04-01T00:32:46;44.00;42.80;45.03;;
66456;Laerm;56833;52.254;5.598;2023-04-01T00:32:57;43.99;42.93;44.99;;
66456;Laerm;56833;52.254;5.598;2023-04-01T00:33:07;43.99;42.89;44.83;;
66456;Laerm;56833;52.254;5.598;2023-04-01T00:33:17;43.91;42.83;44.87;;
66456;Laerm;56833;52.254;5.598;2023-04-01T00:33:28;43.92;42.91;44.93;;
66456;Laerm;56833;52.254;5.598;2023-04-01T00:33:38;43.95;42.79;44.72;;
66456;Laerm;56833;52.254;5.598;2023-04-01T00:33:51;43.91;42.60;44.85;;
66456;Laerm;56833;52.254;5.598;2023-04-01T00:34:01;43.94;42.97;44.83;;
66456;Laerm;56833;52.254;5.598;2023-04-01T00:34:12;43.95;42.95;45.11;;
66456;Laerm;56833;52.254;5.598;2023-04-01T00:34:22;43.93;42.93;44.95;;
66456;Laerm;56833;52.254;5.598;2023-04-01T00:34:33;43.94;42.91;44.86;;
66456;Laerm;56833;52.254;5.598;2023-04-01T00:34:44;43.91;42.57;44.94;;
66456;Laerm;56833;52.254;5.598;2023-04-01T00:34:55;43.91;43.08;44.87;;
66456;Laerm;56833;52.254;5.598;2023-04-01T00:35:06;43.92;42.81;44.99;;
66456;Laerm;56833;52.254;5.598;2023-04-01T00:35:16;43.87;42.58;45.04;;
66456;Laerm;56833;52.254;5.598;2023-04-01T00:35:26;43.88;42.76;44.91;;
66456;Laerm;56833;52.254;5.598;2023-04-01T00:35:37;43.89;42.88;44.93;;
66456;Laerm;56833;52.254;5.598;2023-04-01T00:35:48;43.91;43.08;45.08;;
66456;Laerm;56833;52.254;5.598;2023-04-01T00:36:20;43.77;42.51;44.80;;
66456;Laerm;56833;52.254;5.598;2023-04-01T00:36:31;43.76;42.68;44.81;;
66456;Laerm;56833;52.254;5.598;2023-04-01T00:36:43;43.75;42.81;45.31;;
66456;Laerm;56833;52.254;5.598;2023-04-01T00:36:53;43.78;42.65;44.78;;
66456;Laerm;56833;52.254;5.598;2023-04-01T00:37:04;43.76;42.61;44.81;;
66456;Laerm;56833;52.254;5.598;2023-04-01T00:37:14;43.74;42.79;44.87;;
66456;Laerm;56833;52.254;5.598;2023-04-01T00:37:25;43.75;42.91;45.15;;
66456;Laerm;56833;52.254;5.598;2023-04-01T00:37:36;43.75;42.75;44.74;;
66456;Laerm;56833;52.254;5.598;2023-04-01T00:37:46;43.74;42.81;45.02;;
66456;Laerm;56833;52.254;5.598;2023-04-01T00:37:57;43.75;42.71;44.83;;
66456;Laerm;56833;52.254;5.598;2023-04-01T00:38:08;43.75;42.59;44.75;;
66456;Laerm;56833;52.254;5.598;2023-04-01T00:38:18;43.77;42.71;44.88;;
66456;Laerm;56833;52.254;5.598;2023-04-01T00:38:31;43.77;42.62;44.63;;
66456;Laerm;56833;52.254;5.598;2023-04-01T00:38:42;43.74;42.80;44.88;;
66456;Laerm;56833;52.254;5.598;2023-04-01T00:38:52;43.76;42.71;44.76;;
66456;Laerm;56833;52.254;5.598;2023-04-01T00:39:03;43.73;42.61;45.06;;
66456;Laerm;56833;52.254;5.598;2023-04-01T00:39:13;43.76;42.93;44.77;;
66456;Laerm;56833;52.254;5.598;2023-04-01T00:39:23;43.75;42.75;44.87;;
66456;Laerm;56833;52.254;5.598;2023-04-01T00:39:34;43.78;42.81;44.98;;
66456;Laerm;56833;52.254;5.598;2023-04-01T00:39:45;43.77;42.64;44.82;;
66456;Laerm;56833;52.254;5.598;2023-04-01T00:39:56;43.73;42.71;44.66;;
66456;Laerm;56833;52.254;5.598;2023-04-01T00:40:06;43.76;42.76;44.89;;
66456;Laerm;56833;52.254;5.598;2023-04-01T00:40:28;43.75;42.91;44.64;;
66456;Laerm;56833;52.254;5.598;2023-04-01T00:40:42;43.78;42.64;44.97;;
66456;Laerm;56833;52.254;5.598;2023-04-01T00:40:57;43.79;42.66;44.89;;
66456;Laerm;56833;52.254;5.598;2023-04-01T00:41:08;43.78;42.51;44.72;;
66456;Laerm;56833;52.254;5.598;2023-04-01T00:41:19;43.79;42.65;44.76;;
66456;Laerm;56833;52.254;5.598;2023-04-01T00:41:31;43.74;42.70;44.83;;
66456;Laerm;56833;52.254;5.598;2023-04-01T00:41:42;43.80;42.97;44.80;;
66456;Laerm;56833;52.254;5.598;2023-04-01T00:41:52;43.76;42.66;44.73;;
66456;Laerm;56833;52.254;5.598;2023-04-01T00:42:03;43.77;42.58;44.89;;
66456;Laerm;56833;52.254;5.598;2023-04-01T00:42:14;43.75;42.62;44.81;;
66456;Laerm;56833;52.254;5.598;2023-04-01T00:42:24;43.73;42.60;44.93;;
66456;Laerm;56833;52.254;5.598;2023-04-01T00:42:35;43.79;42.95;44.94;;
66456;Laerm;56833;52.254;5.598;2023-04-01T00:42:46;43.73;42.60;44.75;;
66456;Laerm;56833;52.254;5.598;2023-04-01T00:42:56;43.70;42.45;44.94;;
66456;Laerm;56833;52.254;5.598;2023-04-01T00:43:15;43.73;42.60;44.69;;
66456;Laerm;56833;52.254;5.598;2023-04-01T00:43:27;43.73;42.62;44.85;;
66456;Laerm;56833;52.254;5.598;2023-04-01T00:43:40;43.71;42.14;44.79;;
66456;Laerm;56833;52.254;5.598;2023-04-01T00:43:51;43.69;42.51;44.88;;
66456;Laerm;56833;52.254;5.598;2023-04-01T00:44:14;43.71;42.52;44.64;;
66456;Laerm;56833;52.254;5.598;2023-04-01T00:44:27;43.71;42.66;44.95;;
66456;Laerm;56833;52.254;5.598;2023-04-01T00:44:38;43.71;42.71;44.81;;
66456;Laerm;56833;52.254;5.598;2023-04-01T00:44:52;43.72;42.43;44.62;;
66456;Laerm;56833;52.254;5.598;2023-04-01T00:45:35;43.71;42.56;44.78;;
66456;Laerm;56833;52.254;5.598;2023-04-01T00:45:49;43.75;42.60;44.91;;
66456;Laerm;56833;52.254;5.598;2023-04-01T00:45:59;43.72;42.78;44.81;;
66456;Laerm;56833;52.254;5.598;2023-04-01T00:46:10;43.74;42.73;44.73;;
66456;Laerm;56833;52.254;5.598;2023-04-01T00:46:20;43.74;42.50;44.64;;
66456;Laerm;56833;52.254;5.598;2023-04-01T00:46:30;43.75;42.44;44.68;;
66456;Laerm;56833;52.254;5.598;2023-04-01T00:46:40;43.73;42.31;44.87;;
66456;Laerm;56833;52.254;5.598;2023-04-01T00:46:51;43.68;42.62;44.59;;
66456;Laerm;56833;52.254;5.598;2023-04-01T00:47:02;43.73;42.46;44.82;;
66456;Laerm;56833;52.254;5.598;2023-04-01T00:47:13;43.70;42.68;44.73;;
66456;Laerm;56833;52.254;5.598;2023-04-01T00:47:23;43.80;42.75;44.88;;
66456;Laerm;56833;52.254;5.598;2023-04-01T00:47:35;43.75;42.57;45.05;;
66456;Laerm;56833;52.254;5.598;2023-04-01T00:47:45;43.73;42.69;44.92;;
66456;Laerm;56833;52.254;5.598;2023-04-01T00:47:56;43.77;42.76;44.81;;
66456;Laerm;56833;52.254;5.598;2023-04-01T00:48:27;43.77;42.77;44.90;;
66456;Laerm;56833;52.254;5.598;2023-04-01T00:48:41;43.76;42.64;45.02;;
66456;Laerm;56833;52.254;5.598;2023-04-01T00:48:54;43.78;42.70;44.81;;
66456;Laerm;56833;52.254;5.598;2023-04-01T00:49:08;43.75;42.55;44.70;;
66456;Laerm;56833;52.254;5.598;2023-04-01T00:49:20;43.80;42.79;44.86;;
66456;Laerm;56833;52.254;5.598;2023-04-01T00:49:34;43.77;42.22;44.77;;
66456;Laerm;56833;52.254;5.598;2023-04-01T00:49:46;43.78;42.43;44.78;;
66456;Laerm;56833;52.254;5.598;2023-04-01T00:49:58;43.79;42.76;44.77;;
66456;Laerm;56833;52.254;5.598;2023-04-01T00:50:09;43.73;42.59;44.70;;
66456;Laerm;56833;52.254;5.598;2023-04-01T00:50:21;43.78;42.91;44.69;;
66456;Laerm;56833;52.254;5.598;2023-04-01T00:50:33;43.77;42.38;44.97;;
66456;Laerm;56833;52.254;5.598;2023-04-01T00:50:45;43.71;42.81;45.24;;
66456;Laerm;56833;52.254;5.598;2023-04-01T00:51:10;43.70;42.42;44.83;;
66456;Laerm;56833;52.254;5.598;2023-04-01T00:51:23;43.73;42.63;44.73;;
66456;Laerm;56833;52.254;5.598;2023-04-01T00:51:33;43.77;42.62;44.92;;
66456;Laerm;56833;52.254;5.598;2023-04-01T00:51:46;43.73;42.68;44.75;;
66456;Laerm;56833;52.254;5.598;2023-04-01T00:51:59;43.72;42.15;45.20;;
66456;Laerm;56833;52.254;5.598;2023-04-01T00:52:11;43.75;42.70;44.93;;
66456;Laerm;56833;52.254;5.598;2023-04-01T00:52:23;43.78;42.64;44.80;;
66456;Laerm;56833;52.254;5.598;2023-04-01T00:52:35;43.76;42.78;44.72;;
66456;Laerm;56833;52.254;5.598;2023-04-01T00:52:45;43.78;42.75;44.76;;
66456;Laerm;56833;52.254;5.598;2023-04-01T00:52:56;43.76;42.84;44.75;;
66456;Laerm;56833;52.254;5.598;2023-04-01T00:53:07;43.77;42.67;44.77;;
66456;Laerm;56833;52.254;5.598;2023-04-01T00:53:18;43.81;42.56;44.85;;
66456;Laerm;56833;52.254;5.598;2023-04-01T00:53:29;43.77;42.50;44.74;;
66456;Laerm;56833;52.254;5.598;2023-04-01T00:53:44;43.72;42.61;44.66;;
66456;Laerm;56833;52.254;5.598;2023-04-01T00:53:56;43.73;42.65;44.80;;
66456;Laerm;56833;52.254;5.598;2023-04-01T00:54:08;43.72;42.75;44.78;;
66456;Laerm;56833;52.254;5.598;2023-04-01T00:54:19;43.78;42.72;44.95;;
66456;Laerm;56833;52.254;5.598;2023-04-01T00:54:31;43.76;42.75;44.91;;
66456;Laerm;56833;52.254;5.598;2023-04-01T00:54:42;43.74;42.67;45.10;;
66456;Laerm;56833;52.254;5.598;2023-04-01T00:54:56;43.71;42.47;44.72;;
66456;Laerm;56833;52.254;5.598;2023-04-01T00:55:09;43.74;42.77;45.12;;
66456;Laerm;56833;52.254;5.598;2023-04-01T00:55:21;43.66;42.58;44.75;;
66456;Laerm;56833;52.254;5.598;2023-04-01T00:55:33;43.73;42.51;45.00;;
66456;Laerm;56833;52.254;5.598;2023-04-01T00:55:48;43.72;42.57;44.98;;
66456;Laerm;56833;52.254;5.598;2023-04-01T00:56:01;43.73;42.57;44.63;;
66456;Laerm;56833;52.254;5.598;2023-04-01T00:56:20;43.73;42.45;45.09;;
66456;Laerm;56833;52.254;5.598;2023-04-01T00:56:33;43.74;42.58;44.95;;
66456;Laerm;56833;52.254;5.598;2023-04-01T00:56:48;43.69;42.56;44.68;;
66456;Laerm;56833;52.254;5.598;2023-04-01T00:57:19;43.71;42.44;44.64;;
66456;Laerm;56833;52.254;5.598;2023-04-01T00:57:32;43.73;42.13;44.97;;
66456;Laerm;56833;52.254;5.598;2023-04-01T00:57:44;43.77;42.88;44.75;;
66456;Laerm;56833;52.254;5.598;2023-04-01T00:57:56;43.77;42.63;44.70;;
66456;Laerm;56833;52.254;5.598;2023-04-01T00:58:09;43.75;42.57;44.88;;
66456;Laerm;56833;52.254;5.598;2023-04-01T00:58:21;43.74;42.54;44.88;;
66456;Laerm;56833;52.254;5.598;2023-04-01T00:58:35;43.77;42.63;44.88;;
66456;Laerm;56833;52.254;5.598;2023-04-01T00:58:49;43.73;42.69;44.85;;
66456;Laerm;56833;52.254;5.598;2023-04-01T00:59:01;43.74;42.70;44.75;;
66456;Laerm;56833;52.254;5.598;2023-04-01T00:59:14;43.74;42.75;44.59;;
66456;Laerm;56833;52.254;5.598;2023-04-01T00:59:29;43.76;42.73;44.99;;
66456;Laerm;56833;52.254;5.598;2023-04-01T00:59:42;43.75;42.82;44.80;;
66456;Laerm;56833;52.254;5.598;2023-04-01T00:59:54;43.72;42.53;45.03;;
66456;Laerm;56833;52.254;5.598;2023-04-01T01:00:05;43.73;42.59;44.62;;
66456;Laerm;56833;52.254;5.598;2023-04-01T01:00:17;43.70;42.41;44.85;;
66456;Laerm;56833;52.254;5.598;2023-04-01T01:00:28;43.75;42.80;44.70;;
66456;Laerm;56833;52.254;5.598;2023-04-01T01:00:38;43.75;42.43;44.71;;
66456;Laerm;56833;52.254;5.598;2023-04-01T01:00:48;43.74;42.85;44.88;;
66456;Laerm;56833;52.254;5.598;2023-04-01T01:01:01;43.73;42.67;44.94;;
66456;Laerm;56833;52.254;5.598;2023-04-01T01:01:11;43.73;42.63;44.84;;
66456;Laerm;56833;52.254;5.598;2023-04-01T01:01:22;43.71;42.54;44.92;;
66456;Laerm;56833;52.254;5.598;2023-04-01T01:01:34;43.71;42.68;44.81;;
66456;Laerm;56833;52.254;5.598;2023-04-01T01:01:45;43.74;42.64;44.86;;
66456;Laerm;56833;52.254;5.598;2023-04-01T01:01:55;43.75;42.46;44.78;;
66456;Laerm;56833;52.254;5.598;2023-04-01T01:02:07;43.73;42.47;44.67;;
66456;Laerm;56833;52.254;5.598;2023-04-01T01:02:18;43.73;42.40;45.10;;
66456;Laerm;56833;52.254;5.598;2023-04-01T01:02:29;43.76;42.45;44.69;;
66456;Laerm;56833;52.254;5.598;2023-04-01T01:02:43;43.73;42.61;44.70;;
66456;Laerm;56833;52.254;5.598;2023-04-01T01:02:54;43.75;42.72;44.76;;
66456;Laerm;56833;52.254;5.598;2023-04-01T01:03:04;43.73;42.42;44.72;;
66456;Laerm;56833;52.254;5.598;2023-04-01T01:03:15;43.74;42.79;44.87;;
66456;Laerm;56833;52.254;5.598;2023-04-01T01:03:26;43.74;42.82;45.01;;
66456;Laerm;56833;52.254;5.598;2023-04-01T01:03:36;43.76;42.68;44.68;;
66456;Laerm;56833;52.254;5.598;2023-04-01T01:03:46;43.71;42.62;44.88;;
66456;Laerm;56833;52.254;5.598;2023-04-01T01:03:57;43.71;42.57;44.72;;
66456;Laerm;56833;52.254;5.598;2023-04-01T01:04:19;43.71;42.73;44.70;;
66456;Laerm;56833;52.254;5.598;2023-04-01T01:04:31;43.71;42.58;44.83;;
66456;Laerm;56833;52.254;5.598;2023-04-01T01:04:41;43.74;42.70;44.93;;